createdAt,value
2018-12-03T11:44:45.462Z,1.20
2018-12-03T11:47:22.164Z,1.23
2018-12-03T11:49:57.029Z,0.90
2018-12-03T11:52:26.700Z,0.90
2018-12-03T11:54:56.486Z,0.93
2018-12-03T11:57:33.181Z,1.10
2018-12-03T12:00:10.033Z,1.30
2018-12-03T12:02:39.894Z,1.25
2018-12-03T12:05:07.445Z,1.25
2018-12-03T12:07:35.233Z,1.50
2018-12-03T12:10:11.669Z,1.35
2018-12-03T12:12:44.298Z,1.30
2018-12-03T12:15:12.068Z,1.30
2018-12-03T12:17:39.866Z,1.45
2018-12-03T12:20:16.673Z,1.30
2018-12-03T12:22:44.393Z,1.30
2018-12-03T12:25:14.136Z,1.42
2018-12-03T12:27:50.761Z,1.12
2018-12-03T12:30:18.561Z,1.35
2018-12-03T12:32:48.247Z,1.60
2018-12-03T12:35:24.747Z,1.42
2018-12-03T12:38:01.669Z,1.17
2018-12-03T12:40:31.377Z,1.50
2018-12-03T12:43:01.124Z,1.32
2018-12-03T12:45:28.886Z,1.40
2018-12-03T12:47:58.581Z,1.25
2018-12-03T12:50:31.120Z,1.40
2018-12-03T12:53:00.788Z,1.60
2018-12-03T12:55:37.380Z,1.30
2018-12-03T12:58:05.132Z,1.60
2018-12-03T13:00:41.627Z,1.42
2018-12-03T13:03:11.339Z,1.57
2018-12-03T13:05:39.080Z,1.32
2018-12-03T13:08:15.629Z,1.45
2018-12-03T13:10:45.609Z,1.52
2018-12-03T13:13:22.308Z,1.60
2018-12-03T13:15:49.955Z,1.67
2018-12-03T13:18:19.612Z,1.80
2018-12-03T13:20:47.382Z,1.50
2018-12-03T13:23:17.243Z,1.60
2018-12-03T13:25:49.827Z,1.80
2018-12-03T13:28:26.511Z,1.50
2018-12-03T13:30:59.233Z,1.40
2018-12-03T13:33:43.025Z,1.60
2018-12-03T13:36:19.777Z,1.60
2018-12-03T13:38:54.669Z,1.52
2018-12-03T13:41:24.487Z,1.45
2018-12-03T13:44:00.959Z,1.15
2018-12-03T13:46:38.228Z,1.57
2018-12-03T13:49:32.084Z,1.37
2018-12-03T13:55:06.017Z,1.70
2018-12-03T13:57:35.892Z,2.60
2018-12-03T14:00:13.792Z,1.42
2018-12-03T14:02:43.513Z,1.40
2018-12-03T14:05:20.321Z,1.72
2018-12-03T14:07:48.301Z,1.50
2018-12-03T14:10:17.785Z,2.50
2018-12-03T14:12:48.168Z,1.72
2018-12-03T14:15:19.821Z,1.70
2018-12-03T14:17:49.296Z,1.70
2018-12-03T14:20:25.872Z,1.17
2018-12-03T14:22:55.876Z,1.22
2018-12-03T14:25:23.653Z,2.65
2018-12-03T14:28:00.296Z,2.10
2018-12-03T14:30:32.980Z,1.57
2018-12-03T14:33:00.667Z,1.70
2018-12-03T14:35:37.159Z,2.25
2018-12-03T14:38:13.817Z,1.80
2018-12-03T14:40:50.626Z,2.87
2018-12-03T14:43:25.372Z,2.22
2018-12-03T14:46:02.296Z,2.10
2018-12-03T14:48:39.134Z,1.40
2018-12-03T14:51:08.990Z,1.17
2018-12-03T14:53:45.696Z,3.10
2018-12-03T14:56:13.404Z,2.80
2018-12-03T14:58:50.049Z,1.90
2018-12-03T15:01:20.011Z,1.60
2018-12-03T15:03:49.563Z,1.40
2018-12-03T15:06:26.341Z,1.75
2018-12-03T15:09:01.197Z,1.50
2018-12-03T15:11:29.139Z,1.60
2018-12-03T15:14:01.835Z,1.55
2018-12-03T15:16:36.680Z,1.47
2018-12-03T15:19:11.560Z,1.45
2018-12-03T15:21:38.372Z,1.25
2018-12-03T15:24:13.255Z,1.50
2018-12-03T15:26:37.849Z,1.33
2018-12-03T15:29:14.652Z,1.20
2018-12-03T15:31:44.504Z,1.20
2018-12-03T15:34:20.906Z,1.60
2018-12-03T15:36:57.560Z,1.40
2018-12-03T15:39:32.596Z,1.20
2018-12-03T15:42:02.293Z,1.20
2018-12-03T15:44:38.840Z,1.17
2018-12-03T15:47:08.715Z,1.40
2018-12-03T15:49:45.216Z,1.53
2018-12-03T15:52:15.184Z,1.90
2018-12-03T15:54:51.771Z,1.97
2018-12-03T15:57:28.367Z,1.52
2018-12-03T16:00:03.891Z,1.45
2018-12-03T16:02:34.076Z,1.75
2018-12-03T16:05:10.708Z,1.60
2018-12-03T16:07:40.443Z,1.40
2018-12-03T16:10:16.996Z,1.53
2018-12-03T16:12:46.802Z,1.70
2018-12-03T16:15:19.319Z,1.70
2018-12-03T16:17:59.841Z,1.80
2018-12-03T16:20:28.647Z,1.80
2018-12-03T16:22:58.610Z,1.60
2018-12-03T16:25:35.997Z,1.40
2018-12-03T16:28:10.842Z,1.60
2018-12-03T16:30:45.750Z,1.50
2018-12-03T16:33:22.304Z,1.73
2018-12-03T16:35:52.111Z,1.80
2018-12-03T16:38:30.651Z,1.63
2018-12-03T16:40:58.199Z,1.80
2018-12-03T16:43:25.913Z,1.87
2018-12-03T16:46:10.575Z,1.63
2018-12-03T16:48:40.268Z,1.47
2018-12-03T16:51:09.874Z,1.50
2018-12-03T16:53:46.637Z,1.67
2018-12-03T16:56:16.483Z,1.80
2018-12-03T16:58:53.097Z,1.53
2018-12-03T17:01:23.079Z,1.67
2018-12-03T17:03:59.676Z,2.30
2018-12-03T17:06:36.529Z,2.47
2018-12-03T17:09:11.231Z,2.20
2018-12-03T17:11:41.287Z,2.10
2018-12-03T17:14:11.123Z,2.10
2018-12-03T17:16:40.862Z,2.50
2018-12-03T17:19:17.546Z,2.20
2018-12-03T17:21:50.689Z,2.50
2018-12-03T17:24:26.992Z,2.90
2018-12-03T17:26:59.923Z,2.80
2018-12-03T17:29:29.731Z,3.57
2018-12-03T17:31:59.655Z,3.22
2018-12-03T17:34:29.271Z,3.00
2018-12-03T17:37:05.895Z,2.80
2018-12-03T17:39:33.681Z,2.97
2018-12-03T17:42:03.229Z,2.67
2018-12-03T17:44:32.926Z,2.70
2018-12-03T17:47:09.587Z,3.10
2018-12-03T17:49:37.376Z,2.93
2018-12-03T17:52:07.274Z,2.63
2018-12-03T17:54:43.771Z,2.77
2018-12-03T17:57:13.606Z,2.30
2018-12-03T17:59:43.505Z,2.27
2018-12-03T18:02:13.120Z,2.10
2018-12-03T18:04:49.685Z,2.40
2018-12-03T18:07:26.399Z,2.33
2018-12-03T18:10:01.365Z,2.47
2018-12-03T18:12:30.924Z,2.17
2018-12-03T18:14:58.780Z,1.85
2018-12-03T18:17:35.427Z,1.53
2018-12-03T18:20:12.118Z,1.60
2018-12-03T18:22:41.760Z,1.55
2018-12-03T18:25:21.134Z,1.60
2018-12-03T18:28:06.182Z,1.30
2018-12-03T18:30:34.153Z,1.30
2018-12-03T18:33:02.087Z,1.35
2018-12-03T18:35:38.636Z,1.25
2018-12-03T18:38:11.192Z,1.30
2018-12-03T18:40:41.164Z,1.50
